Dieringer, Washington
Current Conditions -  °F | °C
As of 2:58 AM on Friday 31 Oct 2014 (Local Time) from KTCM Reporting Station
Light Rain Light Rain  
Wind Chill: 52°   Ceiling: 4200
Heat Index: 52°   Visibility: 7mi
Dew Point: 52°   Wind: 0mph
Humidity: 100%   Direction: NA
Pressure: 29.75"   Gusts: NA
Location:  47.2018°N, 122.233°W
Report Text: KTCM 310958Z AUTO 00000KT 7SM -RA FEW010 OVC042 11/11 A2975 RMK AO2 CIG 031 RWY34 SLP078 P0004 T01100110 $
Loading
Personal Weather Stations






























Interactive Weather Map
Tropical Storm Tracking
New forecast layout! Learn more

10-Day Weather Forecast

Advertisements
Track Severe Weather on mobile